sensor_id;sensor_type;location;lat;lon;timestamp;temperature;humidity
56322;DHT22;42227;6.376;-10.782;2023-05-16T00:01:03;27.30;93.20
56322;DHT22;42227;6.376;-10.782;2023-05-16T00:03:31;27.50;92.60
56322;DHT22;42227;6.376;-10.782;2023-05-16T00:06:00;27.20;92.10
56322;DHT22;42227;6.376;-10.782;2023-05-16T00:08:28;27.00;93.00
56322;DHT22;42227;6.376;-10.782;2023-05-16T00:10:57;26.80;93.60
56322;DHT22;42227;6.376;-10.782;2023-05-16T00:15:33;26.80;94.50
56322;DHT22;42227;6.376;-10.782;2023-05-16T00:18:01;26.70;94.60
56322;DHT22;42227;6.376;-10.782;2023-05-16T00:20:30;26.80;95.40
56322;DHT22;42227;6.376;-10.782;2023-05-16T00:22:58;26.90;95.20
56322;DHT22;42227;6.376;-10.782;2023-05-16T00:25:26;27.00;94.90
56322;DHT22;42227;6.376;-10.782;2023-05-16T00:27:54;27.00;94.80
56322;DHT22;42227;6.376;-10.782;2023-05-16T00:30:23;27.10;94.60
56322;DHT22;42227;6.376;-10.782;2023-05-16T00:32:54;26.70;94.30
56322;DHT22;42227;6.376;-10.782;2023-05-16T00:35:23;26.60;95.30
56322;DHT22;42227;6.376;-10.782;2023-05-16T00:37:51;26.50;95.30
56322;DHT22;42227;6.376;-10.782;2023-05-16T00:40:21;26.50;95.90
56322;DHT22;42227;6.376;-10.782;2023-05-16T00:42:49;26.50;96.40
56322;DHT22;42227;6.376;-10.782;2023-05-16T00:45:18;26.80;96.50
56322;DHT22;42227;6.376;-10.782;2023-05-16T00:47:47;27.00;94.90
56322;DHT22;42227;6.376;-10.782;2023-05-16T00:50:16;27.10;95.10
56322;DHT22;42227;6.376;-10.782;2023-05-16T00:52:48;27.20;94.50
56322;DHT22;42227;6.376;-10.782;2023-05-16T00:55:16;26.90;94.50
56322;DHT22;42227;6.376;-10.782;2023-05-16T00:57:45;26.70;94.80
56322;DHT22;42227;6.376;-10.782;2023-05-16T01:00:13;26.60;95.60
56322;DHT22;42227;6.376;-10.782;2023-05-16T01:02:42;26.50;96.10
56322;DHT22;42227;6.376;-10.782;2023-05-16T01:05:10;26.70;96.40
56322;DHT22;42227;6.376;-10.782;2023-05-16T01:07:39;26.90;96.00
56322;DHT22;42227;6.376;-10.782;2023-05-16T01:10:07;27.10;95.50
56322;DHT22;42227;6.376;-10.782;2023-05-16T01:12:44;27.10;95.10
56322;DHT22;42227;6.376;-10.782;2023-05-16T01:15:27;26.80;94.90
56322;DHT22;42227;6.376;-10.782;2023-05-16T01:18:07;26.60;95.40
56322;DHT22;42227;6.376;-10.782;2023-05-16T01:20:54;26.50;96.10
56322;DHT22;42227;6.376;-10.782;2023-05-16T01:26:30;26.70;97.50
56322;DHT22;42227;6.376;-10.782;2023-05-16T01:29:00;26.80;96.60
56322;DHT22;42227;6.376;-10.782;2023-05-16T01:31:29;26.80;96.20
56322;DHT22;42227;6.376;-10.782;2023-05-16T01:33:57;26.80;95.90
56322;DHT22;42227;6.376;-10.782;2023-05-16T01:36:50;26.60;95.60
56322;DHT22;42227;6.376;-10.782;2023-05-16T01:39:32;26.50;96.10
56322;DHT22;42227;6.376;-10.782;2023-05-16T01:42:04;26.40;96.40
56322;DHT22;42227;6.376;-10.782;2023-05-16T01:44:44;26.60;97.00
56322;DHT22;42227;6.376;-10.782;2023-05-16T01:47:15;26.80;96.70
56322;DHT22;42227;6.376;-10.782;2023-05-16T01:50:06;27.00;96.20
56322;DHT22;42227;6.376;-10.782;2023-05-16T01:53:02;27.10;95.20
56322;DHT22;42227;6.376;-10.782;2023-05-16T01:55:45;26.80;95.40
56322;DHT22;42227;6.376;-10.782;2023-05-16T01:58:15;26.80;95.90
56322;DHT22;42227;6.376;-10.782;2023-05-16T02:00:44;26.60;96.10
56322;DHT22;42227;6.376;-10.782;2023-05-16T02:03:12;26.70;96.80
56322;DHT22;42227;6.376;-10.782;2023-05-16T02:05:41;26.80;96.50
56322;DHT22;42227;6.376;-10.782;2023-05-16T02:08:13;27.00;96.40
56322;DHT22;42227;6.376;-10.782;2023-05-16T02:10:41;26.80;95.50
56322;DHT22;42227;6.376;-10.782;2023-05-16T02:13:10;26.60;96.00
56322;DHT22;42227;6.376;-10.782;2023-05-16T02:15:38;26.50;96.70
56322;DHT22;42227;6.376;-10.782;2023-05-16T02:18:07;26.50;97.40
56322;DHT22;42227;6.376;-10.782;2023-05-16T02:20:36;26.70;97.60
56322;DHT22;42227;6.376;-10.782;2023-05-16T02:23:04;26.80;97.00
56322;DHT22;42227;6.376;-10.782;2023-05-16T02:25:32;26.60;96.70
56322;DHT22;42227;6.376;-10.782;2023-05-16T02:28:01;26.50;96.80
56322;DHT22;42227;6.376;-10.782;2023-05-16T02:30:29;26.50;97.20
56322;DHT22;42227;6.376;-10.782;2023-05-16T02:32:57;26.40;97.20
56322;DHT22;42227;6.376;-10.782;2023-05-16T02:35:25;26.30;97.30
56322;DHT22;42227;6.376;-10.782;2023-05-16T02:37:55;26.30;97.50
56322;DHT22;42227;6.376;-10.782;2023-05-16T02:40:24;26.40;97.40
56322;DHT22;42227;6.376;-10.782;2023-05-16T02:42:52;26.60;96.90
56322;DHT22;42227;6.376;-10.782;2023-05-16T02:45:20;26.80;96.50
56322;DHT22;42227;6.376;-10.782;2023-05-16T02:47:50;26.80;95.40
56322;DHT22;42227;6.376;-10.782;2023-05-16T02:50:18;26.60;95.50
56322;DHT22;42227;6.376;-10.782;2023-05-16T02:52:46;26.50;95.90
56322;DHT22;42227;6.376;-10.782;2023-05-16T02:55:15;26.40;96.20
56322;DHT22;42227;6.376;-10.782;2023-05-16T02:58:02;26.40;96.80
56322;DHT22;42227;6.376;-10.782;2023-05-16T03:00:31;26.60;96.50
56322;DHT22;42227;6.376;-10.782;2023-05-16T03:02:59;26.60;96.20
56322;DHT22;42227;6.376;-10.782;2023-05-16T03:05:28;26.50;96.10
56322;DHT22;42227;6.376;-10.782;2023-05-16T03:07:58;26.40;96.30
56322;DHT22;42227;6.376;-10.782;2023-05-16T03:10:26;26.30;96.60
56322;DHT22;42227;6.376;-10.782;2023-05-16T03:12:54;26.30;96.80
56322;DHT22;42227;6.376;-10.782;2023-05-16T03:15:23;26.10;97.00
56322;DHT22;42227;6.376;-10.782;2023-05-16T03:17:51;26.00;97.80
56322;DHT22;42227;6.376;-10.782;2023-05-16T03:20:20;26.30;98.40
56322;DHT22;42227;6.376;-10.782;2023-05-16T03:22:49;26.40;97.90
56322;DHT22;42227;6.376;-10.782;2023-05-16T03:25:17;26.30;97.30
56322;DHT22;42227;6.376;-10.782;2023-05-16T03:27:45;26.30;96.80
56322;DHT22;42227;6.376;-10.782;2023-05-16T03:30:15;26.10;97.10
56322;DHT22;42227;6.376;-10.782;2023-05-16T03:32:45;25.90;97.30
56322;DHT22;42227;6.376;-10.782;2023-05-16T03:35:13;25.90;97.80
56322;DHT22;42227;6.376;-10.782;2023-05-16T03:37:41;26.10;98.10
56322;DHT22;42227;6.376;-10.782;2023-05-16T03:40:10;26.10;97.70
56322;DHT22;42227;6.376;-10.782;2023-05-16T03:42:39;26.10;97.40
56322;DHT22;42227;6.376;-10.782;2023-05-16T03:45:07;26.10;96.50
56322;DHT22;42227;6.376;-10.782;2023-05-16T03:47:35;26.00;96.70
56322;DHT22;42227;6.376;-10.782;2023-05-16T03:50:05;25.90;97.10
56322;DHT22;42227;6.376;-10.782;2023-05-16T03:52:33;25.80;97.00
56322;DHT22;42227;6.376;-10.782;2023-05-16T03:55:02;25.80;97.10
56322;DHT22;42227;6.376;-10.782;2023-05-16T03:57:31;25.70;96.90
56322;DHT22;42227;6.376;-10.782;2023-05-16T03:59:59;25.90;96.80
56322;DHT22;42227;6.376;-10.782;2023-05-16T04:02:40;26.10;96.60
56322;DHT22;42227;6.376;-10.782;2023-05-16T04:05:10;26.10;95.40
56322;DHT22;42227;6.376;-10.782;2023-05-16T04:07:39;25.90;95.20
56322;DHT22;42227;6.376;-10.782;2023-05-16T04:10:10;25.80;95.70
56322;DHT22;42227;6.376;-10.782;2023-05-16T04:12:38;25.70;95.90
56322;DHT22;42227;6.376;-10.782;2023-05-16T04:15:07;25.60;95.90
56322;DHT22;42227;6.376;-10.782;2023-05-16T04:17:36;25.60;96.20
56322;DHT22;42227;6.376;-10.782;2023-05-16T04:20:05;25.80;96.30
56322;DHT22;42227;6.376;-10.782;2023-05-16T04:22:33;26.10;95.60
56322;DHT22;42227;6.376;-10.782;2023-05-16T04:25:01;26.10;94.60
56322;DHT22;42227;6.376;-10.782;2023-05-16T04:27:29;26.00;93.90
56322;DHT22;42227;6.376;-10.782;2023-05-16T04:29:58;25.80;94.30
56322;DHT22;42227;6.376;-10.782;2023-05-16T04:32:26;25.60;94.60
56322;DHT22;42227;6.376;-10.782;2023-05-16T04:34:54;25.60;95.00
56322;DHT22;42227;6.376;-10.782;2023-05-16T04:37:22;25.60;95.50
56322;DHT22;42227;6.376;-10.782;2023-05-16T04:39:51;25.80;94.70
56322;DHT22;42227;6.376;-10.782;2023-05-16T04:42:19;26.00;94.40
56322;DHT22;42227;6.376;-10.782;2023-05-16T04:44:47;26.10;93.50
56322;DHT22;42227;6.376;-10.782;2023-05-16T04:47:15;26.00;93.20
56322;DHT22;42227;6.376;-10.782;2023-05-16T04:49:43;25.80;93.50
56322;DHT22;42227;6.376;-10.782;2023-05-16T04:52:12;25.60;94.10
56322;DHT22;42227;6.376;-10.782;2023-05-16T04:54:40;25.50;94.60
56322;DHT22;42227;6.376;-10.782;2023-05-16T04:57:08;25.50;94.80
56322;DHT22;42227;6.376;-10.782;2023-05-16T04:59:36;25.70;94.00
56322;DHT22;42227;6.376;-10.782;2023-05-16T05:02:04;25.80;93.70
56322;DHT22;42227;6.376;-10.782;2023-05-16T05:04:33;25.90;93.40
56322;DHT22;42227;6.376;-10.782;2023-05-16T05:07:01;25.90;92.70
56322;DHT22;42227;6.376;-10.782;2023-05-16T05:09:29;25.70;93.40
56322;DHT22;42227;6.376;-10.782;2023-05-16T05:11:57;25.50;94.00
56322;DHT22;42227;6.376;-10.782;2023-05-16T05:14:26;25.40;94.30
56322;DHT22;42227;6.376;-10.782;2023-05-16T05:16:54;25.50;95.10
56322;DHT22;42227;6.376;-10.782;2023-05-16T05:19:22;25.60;94.70
56322;DHT22;42227;6.376;-10.782;2023-05-16T05:21:51;25.80;94.00
56322;DHT22;42227;6.376;-10.782;2023-05-16T05:24:19;26.00;93.60
56322;DHT22;42227;6.376;-10.782;2023-05-16T05:26:47;25.70;93.20
56322;DHT22;42227;6.376;-10.782;2023-05-16T05:29:16;25.60;93.90
56322;DHT22;42227;6.376;-10.782;2023-05-16T05:31:44;25.30;94.40
56322;DHT22;42227;6.376;-10.782;2023-05-16T05:34:12;25.30;94.70
56322;DHT22;42227;6.376;-10.782;2023-05-16T05:36:40;25.30;94.90
56322;DHT22;42227;6.376;-10.782;2023-05-16T05:39:09;25.40;94.90
56322;DHT22;42227;6.376;-10.782;2023-05-16T05:41:38;25.70;94.10
56322;DHT22;42227;6.376;-10.782;2023-05-16T05:44:07;25.90;93.40
56322;DHT22;42227;6.376;-10.782;2023-05-16T05:46:35;25.80;92.80
56322;DHT22;42227;6.376;-10.782;2023-05-16T05:49:04;25.50;93.50
56322;DHT22;42227;6.376;-10.782;2023-05-16T05:51:32;25.40;94.10
56322;DHT22;42227;6.376;-10.782;2023-05-16T05:54:01;25.30;94.60
56322;DHT22;42227;6.376;-10.782;2023-05-16T05:56:29;25.30;95.00
56322;DHT22;42227;6.376;-10.782;2023-05-16T05:58:57;25.50;95.20
56322;DHT22;42227;6.376;-10.782;2023-05-16T06:01:26;25.50;94.70
56322;DHT22;42227;6.376;-10.782;2023-05-16T06:03:54;25.40;93.90
56322;DHT22;42227;6.376;-10.782;2023-05-16T06:06:22;25.10;94.90
56322;DHT22;42227;6.376;-10.782;2023-05-16T06:08:50;25.10;95.40
56322;DHT22;42227;6.376;-10.782;2023-05-16T06:11:19;25.10;95.80
56322;DHT22;42227;6.376;-10.782;2023-05-16T06:15:29;25.10;95.40
56322;DHT22;42227;6.376;-10.782;2023-05-16T06:17:58;25.10;95.60
56322;DHT22;42227;6.376;-10.782;2023-05-16T06:20:26;25.20;95.60
56322;DHT22;42227;6.376;-10.782;2023-05-16T06:22:54;25.10;95.90
56322;DHT22;42227;6.376;-10.782;2023-05-16T06:25:22;25.10;95.70
56322;DHT22;42227;6.376;-10.782;2023-05-16T06:27:51;25.00;95.40
56322;DHT22;42227;6.376;-10.782;2023-05-16T06:30:19;25.00;95.70
56322;DHT22;42227;6.376;-10.782;2023-05-16T06:32:47;24.90;96.10
56322;DHT22;42227;6.376;-10.782;2023-05-16T06:35:16;24.90;96.40
56322;DHT22;42227;6.376;-10.782;2023-05-16T06:37:44;24.80;96.20
56322;DHT22;42227;6.376;-10.782;2023-05-16T06:40:12;24.90;96.60
56322;DHT22;42227;6.376;-10.782;2023-05-16T06:42:40;25.00;96.00
56322;DHT22;42227;6.376;-10.782;2023-05-16T06:45:11;24.90;95.50
56322;DHT22;42227;6.376;-10.782;2023-05-16T06:47:39;25.10;95.70
56322;DHT22;42227;6.376;-10.782;2023-05-16T06:50:08;24.90;95.70
56322;DHT22;42227;6.376;-10.782;2023-05-16T06:52:36;24.80;95.80
56322;DHT22;42227;6.376;-10.782;2023-05-16T06:55:05;24.80;96.00
56322;DHT22;42227;6.376;-10.782;2023-05-16T06:57:38;25.00;96.10
56322;DHT22;42227;6.376;-10.782;2023-05-16T07:00:06;25.40;95.80
56322;DHT22;42227;6.376;-10.782;2023-05-16T07:02:35;25.50;94.80
56322;DHT22;42227;6.376;-10.782;2023-05-16T07:05:04;25.40;94.30
56322;DHT22;42227;6.376;-10.782;2023-05-16T07:07:32;25.30;94.50
56322;DHT22;42227;6.376;-10.782;2023-05-16T07:10:00;25.40;94.20
56322;DHT22;42227;6.376;-10.782;2023-05-16T07:12:29;25.30;94.50
56322;DHT22;42227;6.376;-10.782;2023-05-16T07:14:57;25.60;94.40
56322;DHT22;42227;6.376;-10.782;2023-05-16T07:17:25;25.50;93.70
56322;DHT22;42227;6.376;-10.782;2023-05-16T07:19:53;25.40;93.60
56322;DHT22;42227;6.376;-10.782;2023-05-16T07:22:22;25.40;93.70
56322;DHT22;42227;6.376;-10.782;2023-05-16T07:24:50;25.70;94.20
56322;DHT22;42227;6.376;-10.782;2023-05-16T07:27:18;26.10;92.30
56322;DHT22;42227;6.376;-10.782;2023-05-16T07:29:50;25.90;92.00
56322;DHT22;42227;6.376;-10.782;2023-05-16T07:32:18;25.90;92.30
56322;DHT22;42227;6.376;-10.782;2023-05-16T07:34:46;25.90;91.70
56322;DHT22;42227;6.376;-10.782;2023-05-16T07:37:14;26.10;91.80
56322;DHT22;42227;6.376;-10.782;2023-05-16T07:39:43;26.20;91.30
56322;DHT22;42227;6.376;-10.782;2023-05-16T07:42:11;26.40;90.70
56322;DHT22;42227;6.376;-10.782;2023-05-16T07:44:40;27.00;89.80
56322;DHT22;42227;6.376;-10.782;2023-05-16T07:47:08;26.50;87.40
56322;DHT22;42227;6.376;-10.782;2023-05-16T07:49:37;26.70;86.30
56322;DHT22;42227;6.376;-10.782;2023-05-16T07:52:05;26.70;87.40
56322;DHT22;42227;6.376;-10.782;2023-05-16T07:54:34;26.80;85.30
56322;DHT22;42227;6.376;-10.782;2023-05-16T07:57:03;26.80;85.30
56322;DHT22;42227;6.376;-10.782;2023-05-16T07:59:31;27.00;83.90
56322;DHT22;42227;6.376;-10.782;2023-05-16T08:01:59;27.20;80.80
56322;DHT22;42227;6.376;-10.782;2023-05-16T08:04:28;27.40;81.70
56322;DHT22;42227;6.376;-10.782;2023-05-16T08:06:56;28.30;77.00
56322;DHT22;42227;6.376;-10.782;2023-05-16T08:09:25;28.70;71.70
56322;DHT22;42227;6.376;-10.782;2023-05-16T08:11:53;28.60;71.90
56322;DHT22;42227;6.376;-10.782;2023-05-16T08:14:24;28.70;71.20
56322;DHT22;42227;6.376;-10.782;2023-05-16T08:16:53;29.30;68.50
56322;DHT22;42227;6.376;-10.782;2023-05-16T08:19:21;29.20;65.70
56322;DHT22;42227;6.376;-10.782;2023-05-16T08:21:50;29.30;66.00
56322;DHT22;42227;6.376;-10.782;2023-05-16T08:24:19;29.00;65.80
56322;DHT22;42227;6.376;-10.782;2023-05-16T08:26:47;30.40;60.50
56322;DHT22;42227;6.376;-10.782;2023-05-16T08:29:15;30.60;57.60
56322;DHT22;42227;6.376;-10.782;2023-05-16T08:31:44;31.50;51.80
56322;DHT22;42227;6.376;-10.782;2023-05-16T08:34:12;32.30;46.00
56322;DHT22;42227;6.376;-10.782;2023-05-16T08:36:40;31.50;47.50
56322;DHT22;42227;6.376;-10.782;2023-05-16T08:39:09;32.20;48.90
56322;DHT22;42227;6.376;-10.782;2023-05-16T08:41:37;32.90;38.90
56322;DHT22;42227;6.376;-10.782;2023-05-16T08:44:06;33.10;38.30
56322;DHT22;42227;6.376;-10.782;2023-05-16T08:46:36;31.50;45.20
56322;DHT22;42227;6.376;-10.782;2023-05-16T08:49:06;32.30;45.50
56322;DHT22;42227;6.376;-10.782;2023-05-16T08:51:36;33.60;35.70
56322;DHT22;42227;6.376;-10.782;2023-05-16T08:54:13;34.70;26.10
56322;DHT22;42227;6.376;-10.782;2023-05-16T08:56:43;34.50;27.10
56322;DHT22;42227;6.376;-10.782;2023-05-16T08:59:12;34.40;26.10
56322;DHT22;42227;6.376;-10.782;2023-05-16T09:01:40;33.60;34.80
56322;DHT22;42227;6.376;-10.782;2023-05-16T09:04:09;34.10;29.80
56322;DHT22;42227;6.376;-10.782;2023-05-16T09:06:38;34.80;25.70
56322;DHT22;42227;6.376;-10.782;2023-05-16T09:09:06;35.30;23.50
56322;DHT22;42227;6.376;-10.782;2023-05-16T09:11:35;35.20;22.60
56322;DHT22;42227;6.376;-10.782;2023-05-16T09:14:04;33.60;30.00
56322;DHT22;42227;6.376;-10.782;2023-05-16T09:16:32;33.40;33.00
56322;DHT22;42227;6.376;-10.782;2023-05-16T09:19:01;34.40;32.20
56322;DHT22;42227;6.376;-10.782;2023-05-16T09:21:33;35.40;24.00
56322;DHT22;42227;6.376;-10.782;2023-05-16T09:24:06;35.50;22.20
56322;DHT22;42227;6.376;-10.782;2023-05-16T09:26:36;35.40;26.10
56322;DHT22;42227;6.376;-10.782;2023-05-16T09:29:11;34.50;24.80
56322;DHT22;42227;6.376;-10.782;2023-05-16T09:31:40;34.80;26.30
56322;DHT22;42227;6.376;-10.782;2023-05-16T09:34:09;35.50;25.10
56322;DHT22;42227;6.376;-10.782;2023-05-16T09:36:37;36.20;19.50
56322;DHT22;42227;6.376;-10.782;2023-05-16T09:39:08;36.90;17.40
56322;DHT22;42227;6.376;-10.782;2023-05-16T09:41:36;36.60;13.30
56322;DHT22;42227;6.376;-10.782;2023-05-16T09:44:05;36.50;15.50
56322;DHT22;42227;6.376;-10.782;2023-05-16T09:46:34;35.20;20.50
56322;DHT22;42227;6.376;-10.782;2023-05-16T09:49:02;34.00;25.80
56322;DHT22;42227;6.376;-10.782;2023-05-16T09:51:31;34.00;26.90
56322;DHT22;42227;6.376;-10.782;2023-05-16T09:53:59;33.70;27.20
56322;DHT22;42227;6.376;-10.782;2023-05-16T09:56:27;32.90;29.40
56322;DHT22;42227;6.376;-10.782;2023-05-16T09:58:56;32.70;32.20
56322;DHT22;42227;6.376;-10.782;2023-05-16T10:01:26;33.00;28.80
56322;DHT22;42227;6.376;-10.782;2023-05-16T10:03:55;33.30;29.70
56322;DHT22;42227;6.376;-10.782;2023-05-16T10:06:23;33.50;31.00
56322;DHT22;42227;6.376;-10.782;2023-05-16T10:08:52;33.70;27.10
56322;DHT22;42227;6.376;-10.782;2023-05-16T10:11:24;33.50;29.90
56322;DHT22;42227;6.376;-10.782;2023-05-16T10:13:55;33.20;29.60
56322;DHT22;42227;6.376;-10.782;2023-05-16T10:16:23;33.50;29.50
56322;DHT22;42227;6.376;-10.782;2023-05-16T10:18:52;33.90;28.50
56322;DHT22;42227;6.376;-10.782;2023-05-16T10:21:23;33.90;26.20
56322;DHT22;42227;6.376;-10.782;2023-05-16T10:23:54;34.10;29.40
56322;DHT22;42227;6.376;-10.782;2023-05-16T10:26:24;34.80;19.50
56322;DHT22;42227;6.376;-10.782;2023-05-16T10:28:53;34.70;22.10
56322;DHT22;42227;6.376;-10.782;2023-05-16T10:31:22;34.20;19.50
56322;DHT22;42227;6.376;-10.782;2023-05-16T10:33:51;33.00;26.20
56322;DHT22;42227;6.376;-10.782;2023-05-16T10:36:20;32.60;33.50
56322;DHT22;42227;6.376;-10.782;2023-05-16T10:38:50;32.20;33.90
56322;DHT22;42227;6.376;-10.782;2023-05-16T10:41:19;32.00;38.80
56322;DHT22;42227;6.376;-10.782;2023-05-16T10:43:58;32.20;36.20
56322;DHT22;42227;6.376;-10.782;2023-05-16T10:46:27;32.60;34.10
56322;DHT22;42227;6.376;-10.782;2023-05-16T10:48:55;33.20;35.00
56322;DHT22;42227;6.376;-10.782;2023-05-16T10:51:36;33.50;34.60
56322;DHT22;42227;6.376;-10.782;2023-05-16T10:54:09;33.60;28.80
56322;DHT22;42227;6.376;-10.782;2023-05-16T10:56:41;33.40;31.70
56322;DHT22;42227;6.376;-10.782;2023-05-16T10:59:24;33.20;31.00
56322;DHT22;42227;6.376;-10.782;2023-05-16T11:01:55;33.80;29.90
56322;DHT22;42227;6.376;-10.782;2023-05-16T11:04:44;34.30;30.50
56322;DHT22;42227;6.376;-10.782;2023-05-16T11:07:14;33.90;25.90
56322;DHT22;42227;6.376;-10.782;2023-05-16T11:11:45;33.40;29.20
56322;DHT22;42227;6.376;-10.782;2023-05-16T11:17:07;31.90;39.40
56322;DHT22;42227;6.376;-10.782;2023-05-16T11:25:07;31.60;43.80
56322;DHT22;42227;6.376;-10.782;2023-05-16T11:27:43;31.70;44.70
56322;DHT22;42227;6.376;-10.782;2023-05-16T11:30:17;31.70;46.50
56322;DHT22;42227;6.376;-10.782;2023-05-16T11:32:46;31.60;46.10
56322;DHT22;42227;6.376;-10.782;2023-05-16T11:35:16;31.80;46.60
56322;DHT22;42227;6.376;-10.782;2023-05-16T11:37:46;32.00;43.60
56322;DHT22;42227;6.376;-10.782;2023-05-16T11:40:14;32.80;43.80
56322;DHT22;42227;6.376;-10.782;2023-05-16T11:42:45;33.30;39.00
56322;DHT22;42227;6.376;-10.782;2023-05-16T11:45:18;33.90;26.20
56322;DHT22;42227;6.376;-10.782;2023-05-16T11:47:47;33.90;31.90
56322;DHT22;42227;6.376;-10.782;2023-05-16T11:50:18;33.40;31.80
56322;DHT22;42227;6.376;-10.782;2023-05-16T11:52:54;33.40;37.00
56322;DHT22;42227;6.376;-10.782;2023-05-16T11:55:24;33.40;36.60
56322;DHT22;42227;6.376;-10.782;2023-05-16T11:58:07;33.10;36.70
56322;DHT22;42227;6.376;-10.782;2023-05-16T12:00:47;33.00;37.40
56322;DHT22;42227;6.376;-10.782;2023-05-16T12:03:17;33.40;31.60
56322;DHT22;42227;6.376;-10.782;2023-05-16T12:05:53;33.40;32.80
56322;DHT22;42227;6.376;-10.782;2023-05-16T12:08:22;33.30;33.80
56322;DHT22;42227;6.376;-10.782;2023-05-16T12:10:52;33.30;31.60
56322;DHT22;42227;6.376;-10.782;2023-05-16T12:13:22;33.10;35.40
56322;DHT22;42227;6.376;-10.782;2023-05-16T12:15:51;33.00;38.50
56322;DHT22;42227;6.376;-10.782;2023-05-16T12:18:20;33.20;35.10
56322;DHT22;42227;6.376;-10.782;2023-05-16T12:20:49;33.10;34.80
56322;DHT22;42227;6.376;-10.782;2023-05-16T12:23:17;33.30;34.70
56322;DHT22;42227;6.376;-10.782;2023-05-16T12:25:47;33.60;38.30
56322;DHT22;42227;6.376;-10.782;2023-05-16T12:28:16;33.80;32.80
56322;DHT22;42227;6.376;-10.782;2023-05-16T12:30:44;33.60;29.80
56322;DHT22;42227;6.376;-10.782;2023-05-16T12:33:14;33.40;33.80
56322;DHT22;42227;6.376;-10.782;2023-05-16T12:35:45;33.30;35.00
56322;DHT22;42227;6.376;-10.782;2023-05-16T12:38:14;33.10;34.50
56322;DHT22;42227;6.376;-10.782;2023-05-16T12:40:43;33.30;30.00
56322;DHT22;42227;6.376;-10.782;2023-05-16T12:43:16;33.40;36.20
56322;DHT22;42227;6.376;-10.782;2023-05-16T12:45:55;33.60;36.90
56322;DHT22;42227;6.376;-10.782;2023-05-16T12:48:32;34.10;30.60
56322;DHT22;42227;6.376;-10.782;2023-05-16T12:51:17;34.20;30.50
56322;DHT22;42227;6.376;-10.782;2023-05-16T12:53:48;34.00;24.10
56322;DHT22;42227;6.376;-10.782;2023-05-16T12:56:41;33.80;29.30
56322;DHT22;42227;6.376;-10.782;2023-05-16T12:59:10;33.20;33.30
56322;DHT22;42227;6.376;-10.782;2023-05-16T13:01:38;32.80;36.90
56322;DHT22;42227;6.376;-10.782;2023-05-16T13:04:07;32.60;36.70
56322;DHT22;42227;6.376;-10.782;2023-05-16T13:06:35;33.00;39.70
56322;DHT22;42227;6.376;-10.782;2023-05-16T13:09:24;33.50;36.80
56322;DHT22;42227;6.376;-10.782;2023-05-16T13:11:54;33.20;33.30
56322;DHT22;42227;6.376;-10.782;2023-05-16T13:14:23;33.10;32.30
56322;DHT22;42227;6.376;-10.782;2023-05-16T13:16:51;33.00;38.50
56322;DHT22;42227;6.376;-10.782;2023-05-16T13:23:59;32.90;40.60
56322;DHT22;42227;6.376;-10.782;2023-05-16T13:26:27;33.00;41.70
56322;DHT22;42227;6.376;-10.782;2023-05-16T13:28:56;32.80;36.70
56322;DHT22;42227;6.376;-10.782;2023-05-16T13:38:23;32.50;41.80
56322;DHT22;42227;6.376;-10.782;2023-05-16T13:40:51;32.40;45.50
56322;DHT22;42227;6.376;-10.782;2023-05-16T13:43:20;32.80;43.10
56322;DHT22;42227;6.376;-10.782;2023-05-16T13:45:48;32.80;42.50
56322;DHT22;42227;6.376;-10.782;2023-05-16T13:48:16;33.00;39.60
56322;DHT22;42227;6.376;-10.782;2023-05-16T13:50:45;33.00;41.30
56322;DHT22;42227;6.376;-10.782;2023-05-16T13:53:13;32.90;46.70
56322;DHT22;42227;6.376;-10.782;2023-05-16T13:55:41;32.60;45.70
56322;DHT22;42227;6.376;-10.782;2023-05-16T13:58:10;32.60;48.20
56322;DHT22;42227;6.376;-10.782;2023-05-16T14:00:38;32.60;48.40
56322;DHT22;42227;6.376;-10.782;2023-05-16T14:03:17;32.90;47.60
56322;DHT22;42227;6.376;-10.782;2023-05-16T14:05:45;33.00;46.50
56322;DHT22;42227;6.376;-10.782;2023-05-16T14:08:13;33.30;41.90
56322;DHT22;42227;6.376;-10.782;2023-05-16T14:10:42;33.40;41.70
56322;DHT22;42227;6.376;-10.782;2023-05-16T14:13:10;33.30;43.50
56322;DHT22;42227;6.376;-10.782;2023-05-16T14:15:38;33.20;43.70
56322;DHT22;42227;6.376;-10.782;2023-05-16T14:18:09;32.90;48.40
56322;DHT22;42227;6.376;-10.782;2023-05-16T14:20:37;33.00;47.30
56322;DHT22;42227;6.376;-10.782;2023-05-16T14:23:06;33.10;46.50
56322;DHT22;42227;6.376;-10.782;2023-05-16T14:25:34;33.40;42.90
56322;DHT22;42227;6.376;-10.782;2023-05-16T14:28:02;33.60;41.10
56322;DHT22;42227;6.376;-10.782;2023-05-16T14:30:31;33.50;40.40
56322;DHT22;42227;6.376;-10.782;2023-05-16T14:32:59;33.30;40.60
56322;DHT22;42227;6.376;-10.782;2023-05-16T14:35:28;33.40;42.60
56322;DHT22;42227;6.376;-10.782;2023-05-16T14:37:57;33.20;45.70
56322;DHT22;42227;6.376;-10.782;2023-05-16T14:40:25;32.80;43.10
56322;DHT22;42227;6.376;-10.782;2023-05-16T14:43:02;32.50;47.90
56322;DHT22;42227;6.376;-10.782;2023-05-16T14:45:30;32.40;49.20
56322;DHT22;42227;6.376;-10.782;2023-05-16T14:48:05;32.30;48.20
56322;DHT22;42227;6.376;-10.782;2023-05-16T14:50:35;31.90;50.70
56322;DHT22;42227;6.376;-10.782;2023-05-16T14:53:03;31.50;52.90
56322;DHT22;42227;6.376;-10.782;2023-05-16T14:55:31;31.40;55.00
56322;DHT22;42227;6.376;-10.782;2023-05-16T14:57:59;31.00;56.40
56322;DHT22;42227;6.376;-10.782;2023-05-16T15:00:28;31.00;56.20
56322;DHT22;42227;6.376;-10.782;2023-05-16T15:02:56;31.10;57.60
56322;DHT22;42227;6.376;-10.782;2023-05-16T15:05:25;31.40;57.10
56322;DHT22;42227;6.376;-10.782;2023-05-16T15:07:53;32.00;56.80
56322;DHT22;42227;6.376;-10.782;2023-05-16T15:10:21;32.20;53.80
56322;DHT22;42227;6.376;-10.782;2023-05-16T15:12:50;32.20;44.30
56322;DHT22;42227;6.376;-10.782;2023-05-16T15:15:18;32.10;48.70
56322;DHT22;42227;6.376;-10.782;2023-05-16T15:17:46;31.70;52.60
56322;DHT22;42227;6.376;-10.782;2023-05-16T15:20:15;32.00;48.90
56322;DHT22;42227;6.376;-10.782;2023-05-16T15:22:43;32.40;45.90
56322;DHT22;42227;6.376;-10.782;2023-05-16T15:25:11;32.60;46.70
56322;DHT22;42227;6.376;-10.782;2023-05-16T15:27:39;32.60;44.70
56322;DHT22;42227;6.376;-10.782;2023-05-16T15:30:08;32.50;43.30
56322;DHT22;42227;6.376;-10.782;2023-05-16T15:32:36;32.30;41.00
56322;DHT22;42227;6.376;-10.782;2023-05-16T15:35:05;32.30;42.20
56322;DHT22;42227;6.376;-10.782;2023-05-16T15:37:33;32.30;45.00
56322;DHT22;42227;6.376;-10.782;2023-05-16T15:40:01;32.30;47.10
56322;DHT22;42227;6.376;-10.782;2023-05-16T15:42:30;32.70;44.60
56322;DHT22;42227;6.376;-10.782;2023-05-16T15:44:58;32.70;44.10
56322;DHT22;42227;6.376;-10.782;2023-05-16T15:47:26;32.60;45.20
56322;DHT22;42227;6.376;-10.782;2023-05-16T15:49:54;32.60;44.00
56322;DHT22;42227;6.376;-10.782;2023-05-16T15:52:22;32.70;46.20
56322;DHT22;42227;6.376;-10.782;2023-05-16T15:54:51;32.50;42.60
56322;DHT22;42227;6.376;-10.782;2023-05-16T15:57:19;32.20;43.40
56322;DHT22;42227;6.376;-10.782;2023-05-16T15:59:47;32.30;44.30